Time;durP1;ratioP1;P1;durP2;ratioP2;P2;SDS_P1;SDS_P2;PMS_P1;PMS_P2;Temp;Humidity;BMP_temperature;BMP_pressure;BME280_temperature;BME280_humidity;BME280_pressure;Samples;Min_cycle;Max_cycle;Signal;HPM_P1;HPM_P2
2022/12/05 00:00:23;;;;;;;25.47;14.37;;;;;;;;;;5051740;28;20240;-81
2022/12/05 00:02:51;;;;;;;25.33;14.17;;;;;;;;;;5052173;28;20553;-80
2022/12/05 00:05:19;;;;;;;25.73;15.10;;;;;;;;;;5051995;28;20235;-80
2022/12/05 00:07:46;;;;;;;25.90;15.63;;;;;;;;;;5051996;28;20209;-80
2022/12/05 00:10:13;;;;;;;29.13;15.10;;;;;;;;;;5051465;28;20194;-80
2022/12/05 00:12:40;;;;;;;25.70;14.60;;;;;;;;;;5052409;28;20209;-81
2022/12/05 00:15:11;;;;;;;25.27;15.77;;;;;;;;;;5051498;28;20233;-81
2022/12/05 00:17:38;;;;;;;23.07;14.17;;;;;;;;;;5051978;28;20202;-80
2022/12/05 00:20:06;;;;;;;23.30;14.73;;;;;;;;;;5051042;28;20226;-80
2022/12/05 00:22:35;;;;;;;29.23;15.50;;;;;;;;;;5051542;28;20215;-80
2022/12/05 00:25:02;;;;;;;28.80;15.27;;;;;;;;;;5050917;28;20237;-81
2022/12/05 00:27:29;;;;;;;25.03;14.90;;;;;;;;;;5051908;28;20210;-81
2022/12/05 00:29:56;;;;;;;28.50;16.07;;;;;;;;;;5051626;28;20222;-81
2022/12/05 00:32:23;;;;;;;26.07;14.50;;;;;;;;;;5051255;28;20241;-80
2022/12/05 00:34:50;;;;;;;28.90;15.77;;;;;;;;;;5051651;28;20233;-81
2022/12/05 00:37:17;;;;;;;28.77;14.70;;;;;;;;;;5050948;28;20238;-81
2022/12/05 00:39:46;;;;;;;29.77;14.87;;;;;;;;;;5051633;28;20226;-81
2022/12/05 00:42:13;;;;;;;28.33;14.63;;;;;;;;;;5051010;28;20625;-80
2022/12/05 00:44:40;;;;;;;25.30;15.03;;;;;;;;;;5051054;28;20314;-81
2022/12/05 00:47:07;;;;;;;26.73;15.17;;;;;;;;;;5051257;28;20572;-81
2022/12/05 00:49:34;;;;;;;28.87;15.40;;;;;;;;;;5051526;28;20200;-81
2022/12/05 00:52:01;;;;;;;25.07;14.17;;;;;;;;;;5050868;28;20236;-80
2022/12/05 00:54:28;;;;;;;26.17;15.17;;;;;;;;;;5055834;28;20202;-80
2022/12/05 00:56:57;;;;;;;27.03;14.70;;;;;;;;;;5055020;28;20237;-81
2022/12/05 00:59:24;;;;;;;29.50;15.53;;;;;;;;;;5054909;28;20715;-80
2022/12/05 01:01:52;;;;;;;26.53;15.33;;;;;;;;;;5054528;28;20713;-81
2022/12/05 01:04:21;;;;;;;26.37;15.23;;;;;;;;;;5055432;28;20205;-81
2022/12/05 01:06:48;;;;;;;27.30;15.03;;;;;;;;;;5054621;28;20690;-80
2022/12/05 01:09:16;;;;;;;24.73;14.53;;;;;;;;;;5055037;28;20203;-81
2022/12/05 01:11:44;;;;;;;27.10;14.60;;;;;;;;;;5054547;28;20282;-81
2022/12/05 01:14:13;;;;;;;32.67;15.30;;;;;;;;;;5054606;28;20214;-81
2022/12/05 01:16:40;;;;;;;30.23;15.50;;;;;;;;;;5054653;28;20243;-81
2022/12/05 01:19:08;;;;;;;26.50;15.37;;;;;;;;;;5054845;28;20220;-83
2022/12/05 01:21:35;;;;;;;27.73;14.93;;;;;;;;;;5054717;28;20244;-81
2022/12/05 01:24:03;;;;;;;29.47;14.97;;;;;;;;;;5055527;28;20784;-81
2022/12/05 01:26:30;;;;;;;26.37;15.13;;;;;;;;;;5054238;28;20238;-81
2022/12/05 01:28:57;;;;;;;26.47;15.30;;;;;;;;;;5054751;28;20214;-81
2022/12/05 01:31:26;;;;;;;28.93;14.17;;;;;;;;;;5054324;28;20243;-82
2022/12/05 01:33:54;;;;;;;28.13;15.60;;;;;;;;;;5054640;28;20243;-81
2022/12/05 01:36:21;;;;;;;26.57;14.83;;;;;;;;;;5053972;28;20707;-81
2022/12/05 01:38:49;;;;;;;27.80;14.70;;;;;;;;;;5054858;28;20210;-81
2022/12/05 01:41:17;;;;;;;29.53;15.80;;;;;;;;;;5053843;28;20323;-81
2022/12/05 01:43:54;;;;;;;26.30;13.97;;;;;;;;;;5054416;28;20212;-81
2022/12/05 01:46:22;;;;;;;32.17;16.23;;;;;;;;;;5053871;28;20752;-81
2022/12/05 01:48:51;;;;;;;29.97;15.93;;;;;;;;;;5054189;28;20208;-81
2022/12/05 01:51:18;;;;;;;28.03;17.23;;;;;;;;;;5053918;28;20320;-81
2022/12/05 01:53:45;;;;;;;32.37;16.40;;;;;;;;;;5054517;28;20210;-81
2022/12/05 01:56:13;;;;;;;28.73;16.57;;;;;;;;;;5053641;28;20242;-81
2022/12/05 01:58:42;;;;;;;32.60;16.17;;;;;;;;;;5054344;28;20205;-81
2022/12/05 02:01:09;;;;;;;33.17;16.70;;;;;;;;;;5053680;28;20242;-81
2022/12/05 02:03:38;;;;;;;29.33;16.00;;;;;;;;;;5034185;28;20550;-81
2022/12/05 02:06:07;;;;;;;35.23;16.77;;;;;;;;;;5033210;28;20239;-81
2022/12/05 02:08:34;;;;;;;29.63;16.13;;;;;;;;;;5038360;28;20218;-81
2022/12/05 02:11:01;;;;;;;33.27;16.67;;;;;;;;;;5053643;28;20577;-81
2022/12/05 02:13:49;;;;;;;33.23;16.80;;;;;;;;;;5054150;28;20213;-81
2022/12/05 02:16:20;;;;;;;31.33;16.23;;;;;;;;;;5028058;28;20244;-81
2022/12/05 02:18:54;;;;;;;25.60;15.53;;;;;;;;;;5053830;28;20370;-81
2022/12/05 02:21:36;;;;;;;31.77;15.53;;;;;;;;;;5053813;28;20244;-82
2022/12/05 02:24:09;;;;;;;27.70;16.60;;;;;;;;;;5045045;28;20724;-82
2022/12/05 02:26:48;;;;;;;27.87;15.77;;;;;;;;;;5058509;28;20619;-83
2022/12/05 02:29:31;;;;;;;26.20;15.37;;;;;;;;;;5053439;28;20210;-82
2022/12/05 02:32:05;;;;;;;38.03;15.97;;;;;;;;;;5053344;28;20242;-82
2022/12/05 02:34:34;;;;;;;36.37;15.70;;;;;;;;;;5053780;28;20205;-82
2022/12/05 02:37:04;;;;;;;33.63;16.10;;;;;;;;;;5053143;28;20239;-82
2022/12/05 02:39:38;;;;;;;26.57;14.90;;;;;;;;;;5053396;28;20206;-82
2022/12/05 02:42:10;;;;;;;28.30;16.40;;;;;;;;;;5053152;28;20779;-82
2022/12/05 02:44:39;;;;;;;28.37;15.23;;;;;;;;;;5053441;28;20194;-82
2022/12/05 02:47:09;;;;;;;31.10;16.13;;;;;;;;;;5053326;28;20317;-82
2022/12/05 02:49:37;;;;;;;32.23;16.00;;;;;;;;;;5053300;28;20292;-82
2022/12/05 02:52:06;;;;;;;28.37;15.73;;;;;;;;;;5052813;28;20240;-82
2022/12/05 02:54:35;;;;;;;28.00;15.70;;;;;;;;;;5053161;28;20210;-82
2022/12/05 02:57:03;;;;;;;31.43;15.93;;;;;;;;;;5052415;28;20329;-82
2022/12/05 02:59:30;;;;;;;37.80;15.87;;;;;;;;;;5052524;28;20205;-83
2022/12/05 03:01:57;;;;;;;34.33;16.27;;;;;;;;;;5052683;28;20230;-83
2022/12/05 03:04:26;;;;;;;29.93;15.10;;;;;;;;;;5053131;28;20210;-82
2022/12/05 03:06:56;;;;;;;29.67;14.83;;;;;;;;;;5052288;28;20240;-82
2022/12/05 03:09:25;;;;;;;31.47;15.33;;;;;;;;;;5052870;28;20208;-83
2022/12/05 03:11:54;;;;;;;28.50;14.70;;;;;;;;;;5052480;28;20222;-82
2022/12/05 03:14:23;;;;;;;31.23;15.47;;;;;;;;;;5052763;28;20210;-82
2022/12/05 03:16:52;;;;;;;27.50;15.90;;;;;;;;;;5052118;28;20247;-83
2022/12/05 03:19:21;;;;;;;32.73;14.23;;;;;;;;;;5052746;28;20579;-83
2022/12/05 03:21:53;;;;;;;31.63;16.00;;;;;;;;;;5052386;28;20701;-82
2022/12/05 03:24:20;;;;;;;35.57;16.33;;;;;;;;;;5052918;28;20194;-82
2022/12/05 03:26:51;;;;;;;32.73;16.03;;;;;;;;;;5052123;28;20236;-82
2022/12/05 03:29:25;;;;;;;33.93;15.20;;;;;;;;;;5052422;28;20209;-82
2022/12/05 03:31:55;;;;;;;44.43;17.00;;;;;;;;;;5052119;28;20261;-82
2022/12/05 03:34:27;;;;;;;36.67;16.67;;;;;;;;;;5052638;28;20206;-82
2022/12/05 03:36:56;;;;;;;39.30;18.07;;;;;;;;;;5052339;28;20236;-82
2022/12/05 03:39:24;;;;;;;31.80;16.00;;;;;;;;;;5051920;28;20206;-82
2022/12/05 03:41:56;;;;;;;35.43;16.90;;;;;;;;;;5051946;28;20247;-82
2022/12/05 03:44:26;;;;;;;43.83;18.80;;;;;;;;;;5052559;28;20193;-82
2022/12/05 03:46:55;;;;;;;36.60;17.90;;;;;;;;;;5051813;28;20752;-82
2022/12/05 03:49:25;;;;;;;44.93;18.03;;;;;;;;;;5051959;28;20664;-82
2022/12/05 03:51:54;;;;;;;40.73;18.00;;;;;;;;;;5051855;28;20234;-82
2022/12/05 03:54:24;;;;;;;46.33;19.50;;;;;;;;;;5052295;28;20540;-82
2022/12/05 03:56:53;;;;;;;45.93;19.53;;;;;;;;;;5051710;28;20241;-82
2022/12/05 03:59:23;;;;;;;39.53;18.07;;;;;;;;;;5051855;28;20210;-82
2022/12/05 04:01:51;;;;;;;45.53;18.17;;;;;;;;;;5051317;28;20241;-82
2022/12/05 04:04:22;;;;;;;37.20;16.50;;;;;;;;;;5052339;28;20210;-83
2022/12/05 04:06:50;;;;;;;39.80;17.53;;;;;;;;;;5051496;28;20242;-82
2022/12/05 04:09:19;;;;;;;44.03;16.50;;;;;;;;;;5051899;28;20215;-82
2022/12/05 04:11:50;;;;;;;40.87;16.37;;;;;;;;;;5051686;28;20241;-82
2022/12/05 04:14:19;;;;;;;38.50;17.03;;;;;;;;;;5052144;28;20237;-83
2022/12/05 04:17:03;;;;;;;39.13;17.03;;;;;;;;;;5051454;28;20241;-83
2022/12/05 04:21:36;;;;;;;35.83;16.73;;;;;;;;;;5051705;28;20285;-82
2022/12/05 04:22:19;;;;;;;34.53;15.70;;;;;;;;;;5051137;28;20236;-82
2022/12/05 04:27:39;;;;;;;31.93;15.97;;;;;;;;;;5051711;28;20216;-82
2022/12/05 04:30:07;;;;;;;35.67;16.07;;;;;;;;;;5051411;28;20194;-81
2022/12/05 04:32:38;;;;;;;33.70;16.70;;;;;;;;;;5051563;28;20734;-82
2022/12/05 04:35:07;;;;;;;33.23;16.40;;;;;;;;;;5051286;28;20226;-82
2022/12/05 04:37:36;;;;;;;39.40;16.90;;;;;;;;;;5051448;28;20234;-82
2022/12/05 04:40:06;;;;;;;35.63;14.93;;;;;;;;;;5050886;28;20631;-82
2022/12/05 04:42:36;;;;;;;37.37;18.10;;;;;;;;;;5051508;28;20188;-81
2022/12/05 04:45:08;;;;;;;40.57;16.97;;;;;;;;;;5050602;28;20245;-82
2022/12/05 04:47:37;;;;;;;40.57;17.17;;;;;;;;;;5051351;28;20242;-81
2022/12/05 04:50:05;;;;;;;45.70;17.13;;;;;;;;;;5050703;28;20574;-81
2022/12/05 04:52:33;;;;;;;44.80;18.43;;;;;;;;;;5051369;28;20208;-81
2022/12/05 04:55:03;;;;;;;41.40;18.80;;;;;;;;;;5051441;28;20226;-82
2022/12/05 04:57:31;;;;;;;40.47;17.87;;;;;;;;;;5051317;28;20225;-81
2022/12/05 05:00:00;;;;;;;40.10;18.80;;;;;;;;;;5051226;28;20210;-82
2022/12/05 05:02:30;;;;;;;36.10;15.77;;;;;;;;;;5051105;28;20260;-82
2022/12/05 05:04:59;;;;;;;39.00;17.07;;;;;;;;;;5051012;28;20219;-82
2022/12/05 05:07:26;;;;;;;35.83;16.83;;;;;;;;;;5050792;28;20241;-82
2022/12/05 05:09:53;;;;;;;34.60;15.90;;;;;;;;;;5050965;28;20202;-82
2022/12/05 05:12:20;;;;;;;34.73;15.03;;;;;;;;;;5050758;28;20605;-82
2022/12/05 05:14:47;;;;;;;29.90;14.87;;;;;;;;;;5048457;28;20202;-82
2022/12/05 05:17:15;;;;;;;31.97;15.73;;;;;;;;;;5050250;28;20246;-81
2022/12/05 05:19:42;;;;;;;34.77;15.83;;;;;;;;;;5050990;28;20217;-82
2022/12/05 05:22:09;;;;;;;39.40;18.00;;;;;;;;;;5050444;28;20248;-81
2022/12/05 05:24:36;;;;;;;39.90;16.83;;;;;;;;;;5051184;28;20214;-82
2022/12/05 05:27:04;;;;;;;43.33;19.17;;;;;;;;;;5050505;28;20237;-83
2022/12/05 05:29:31;;;;;;;35.40;16.67;;;;;;;;;;5051337;28;20214;-82
2022/12/05 05:31:58;;;;;;;36.07;17.53;;;;;;;;;;5050558;28;20231;-83
2022/12/05 05:34:27;;;;;;;43.90;16.97;;;;;;;;;;5051470;28;20210;-82
2022/12/05 05:36:54;;;;;;;33.70;16.70;;;;;;;;;;5050338;28;20259;-82
2022/12/05 05:39:21;;;;;;;35.37;17.30;;;;;;;;;;5051294;28;20214;-83
2022/12/05 05:41:48;;;;;;;37.40;16.57;;;;;;;;;;5054972;28;20313;-82
2022/12/05 05:44:16;;;;;;;39.43;17.27;;;;;;;;;;5054965;28;20215;-83
2022/12/05 05:46:43;;;;;;;34.63;17.07;;;;;;;;;;5053671;28;20239;-83
2022/12/05 05:49:10;;;;;;;39.63;18.63;;;;;;;;;;5054221;28;20598;-83
2022/12/05 05:51:39;;;;;;;34.47;16.37;;;;;;;;;;5053921;28;20237;-82
2022/12/05 05:54:06;;;;;;;38.80;16.43;;;;;;;;;;5054059;28;20205;-82
2022/12/05 05:56:33;;;;;;;36.07;16.23;;;;;;;;;;5053513;28;20702;-81
2022/12/05 05:59:01;;;;;;;35.77;15.43;;;;;;;;;;5053889;28;20213;-82
2022/12/05 06:01:29;;;;;;;35.47;16.57;;;;;;;;;;5053848;28;20247;-83
2022/12/05 06:03:58;;;;;;;33.00;15.77;;;;;;;;;;5054272;28;20581;-83
2022/12/05 06:06:25;;;;;;;38.30;16.50;;;;;;;;;;5053719;28;20698;-83
2022/12/05 06:08:54;;;;;;;33.20;16.50;;;;;;;;;;5054113;28;20210;-85
2022/12/05 06:11:22;;;;;;;30.27;15.17;;;;;;;;;;5053679;28;20653;-84
2022/12/05 06:13:50;;;;;;;32.53;14.83;;;;;;;;;;5046551;28;20203;-85
2022/12/05 06:16:19;;;;;;;36.30;16.23;;;;;;;;;;5055944;28;20717;-83
2022/12/05 06:18:47;;;;;;;35.77;15.93;;;;;;;;;;5053954;28;20210;-82
2022/12/05 06:21:15;;;;;;;34.13;15.63;;;;;;;;;;5053093;28;20267;-83
2022/12/05 06:23:42;;;;;;;32.47;15.70;;;;;;;;;;5053734;28;20592;-82
2022/12/05 06:26:13;;;;;;;31.83;15.30;;;;;;;;;;5053311;28;20274;-83
2022/12/05 06:28:40;;;;;;;37.43;16.20;;;;;;;;;;5053790;28;20194;-83
2022/12/05 06:31:08;;;;;;;30.67;15.70;;;;;;;;;;5053087;28;20233;-83
2022/12/05 06:33:35;;;;;;;34.80;16.27;;;;;;;;;;5053477;28;20209;-83
2022/12/05 06:36:03;;;;;;;30.30;16.17;;;;;;;;;;5053361;28;20238;-84
2022/12/05 06:38:30;;;;;;;31.13;14.80;;;;;;;;;;5053905;28;20212;-84
2022/12/05 06:40:57;;;;;;;29.67;15.23;;;;;;;;;;5052989;28;20244;-82
2022/12/05 06:43:26;;;;;;;26.27;14.50;;;;;;;;;;5049417;28;20203;-82
2022/12/05 06:45:53;;;;;;;34.83;15.83;;;;;;;;;;5055827;28;20318;-82
2022/12/05 06:48:20;;;;;;;30.47;15.17;;;;;;;;;;5066787;28;20198;-81
2022/12/05 06:50:51;;;;;;;31.73;16.37;;;;;;;;;;5071490;28;20237;-82
2022/12/05 06:53:18;;;;;;;31.33;15.23;;;;;;;;;;5072216;28;20205;-81
2022/12/05 06:55:46;;;;;;;34.93;15.97;;;;;;;;;;5071588;28;20269;-81
2022/12/05 06:58:13;;;;;;;32.03;16.03;;;;;;;;;;5071953;28;20217;-82
2022/12/05 07:03:26;;;;;;;28.17;16.00;;;;;;;;;;5032278;28;20189;-82
2022/12/05 07:05:54;;;;;;;26.30;14.77;;;;;;;;;;5031570;28;20243;-81
2022/12/05 07:08:21;;;;;;;29.47;14.73;;;;;;;;;;5031866;28;20685;-82
2022/12/05 07:10:51;;;;;;;29.30;16.07;;;;;;;;;;5032309;28;20238;-82
2022/12/05 07:13:19;;;;;;;34.63;16.00;;;;;;;;;;5030533;28;20209;-82
2022/12/05 07:15:48;;;;;;;36.33;16.43;;;;;;;;;;5050987;28;20235;-81
2022/12/05 07:18:15;;;;;;;35.93;15.60;;;;;;;;;;5064124;28;20210;-82
2022/12/05 07:20:43;;;;;;;37.07;17.93;;;;;;;;;;5051804;28;20245;-82
2022/12/05 07:23:10;;;;;;;30.53;16.17;;;;;;;;;;5051880;28;21020;-81
2022/12/05 07:25:40;;;;;;;41.83;19.63;;;;;;;;;;5052006;28;20262;-81
2022/12/05 07:28:07;;;;;;;32.87;17.37;;;;;;;;;;5051653;28;20210;-81
2022/12/05 07:30:34;;;;;;;39.13;19.27;;;;;;;;;;5051849;28;20240;-82
2022/12/05 07:33:02;;;;;;;31.57;16.17;;;;;;;;;;5051750;28;20202;-81
2022/12/05 07:35:29;;;;;;;34.33;18.17;;;;;;;;;;5046891;28;20248;-81
2022/12/05 07:37:57;;;;;;;38.70;18.33;;;;;;;;;;5051745;28;20204;-81
2022/12/05 07:40:24;;;;;;;34.73;18.60;;;;;;;;;;5051964;28;20236;-81
2022/12/05 07:42:53;;;;;;;33.07;16.97;;;;;;;;;;5052045;28;20634;-81
2022/12/05 07:45:20;;;;;;;30.50;15.07;;;;;;;;;;5051396;28;20241;-82
2022/12/05 07:47:47;;;;;;;35.77;20.20;;;;;;;;;;5051795;28;20216;-81
2022/12/05 07:50:15;;;;;;;46.20;20.43;;;;;;;;;;5051473;28;20563;-81
2022/12/05 07:52:42;;;;;;;31.93;17.57;;;;;;;;;;5051765;28;20219;-81
2022/12/05 07:55:09;;;;;;;39.03;18.33;;;;;;;;;;5051334;28;20241;-81
2022/12/05 07:57:37;;;;;;;35.30;17.27;;;;;;;;;;5051460;28;20690;-81
2022/12/05 08:00:05;;;;;;;29.80;15.37;;;;;;;;;;5051102;28;20212;-81
2022/12/05 08:02:33;;;;;;;33.50;16.60;;;;;;;;;;5050780;28;20237;-81
2022/12/05 08:05:00;;;;;;;29.70;15.93;;;;;;;;;;5051767;28;20244;-81
2022/12/05 08:07:28;;;;;;;31.10;15.37;;;;;;;;;;5050971;28;20231;-81
2022/12/05 08:09:55;;;;;;;33.93;16.77;;;;;;;;;;5051455;28;20214;-81
2022/12/05 08:12:22;;;;;;;34.83;17.17;;;;;;;;;;5050985;28;20235;-82
2022/12/05 08:14:49;;;;;;;39.93;18.50;;;;;;;;;;5051155;28;20231;-81
2022/12/05 08:17:17;;;;;;;35.93;16.60;;;;;;;;;;5050926;28;20334;-82
2022/12/05 08:19:44;;;;;;;37.80;18.37;;;;;;;;;;5051442;28;20256;-82
2022/12/05 08:22:11;;;;;;;40.77;17.93;;;;;;;;;;5051247;28;20239;-81
2022/12/05 08:24:40;;;;;;;39.70;18.30;;;;;;;;;;5051128;28;20776;-81
2022/12/05 08:27:07;;;;;;;30.93;16.97;;;;;;;;;;5050782;28;20710;-81
2022/12/05 08:29:34;;;;;;;31.67;16.97;;;;;;;;;;5050901;28;20573;-81
2022/12/05 08:32:01;;;;;;;34.00;16.03;;;;;;;;;;5050751;28;20724;-82
2022/12/05 08:34:28;;;;;;;32.93;15.70;;;;;;;;;;5051444;28;20194;-81
2022/12/05 08:36:55;;;;;;;28.43;14.90;;;;;;;;;;5050657;28;20246;-81
2022/12/05 08:39:23;;;;;;;32.23;16.37;;;;;;;;;;5050926;28;20205;-81
2022/12/05 08:41:51;;;;;;;31.93;16.70;;;;;;;;;;5050715;28;20265;-82
2022/12/05 08:44:18;;;;;;;28.27;14.83;;;;;;;;;;5051183;28;20216;-81
2022/12/05 08:46:46;;;;;;;33.97;14.33;;;;;;;;;;5050446;28;20241;-82
2022/12/05 08:49:13;;;;;;;29.17;15.63;;;;;;;;;;5056174;28;20672;-81
2022/12/05 08:51:41;;;;;;;30.97;16.03;;;;;;;;;;5070786;28;20235;-81
2022/12/05 08:54:08;;;;;;;27.37;14.90;;;;;;;;;;5067979;28;20213;-82
2022/12/05 08:56:37;;;;;;;31.93;15.77;;;;;;;;;;5067212;28;20250;-81
2022/12/05 08:59:05;;;;;;;25.60;15.37;;;;;;;;;;5070043;28;20287;-81
2022/12/05 09:01:33;;;;;;;31.27;15.03;;;;;;;;;;5030556;28;20248;-82
2022/12/05 09:04:01;;;;;;;26.87;15.07;;;;;;;;;;5050780;28;20605;-82
2022/12/05 09:06:29;;;;;;;27.17;14.57;;;;;;;;;;5050655;28;20237;-82
2022/12/05 09:08:57;;;;;;;35.23;16.37;;;;;;;;;;5050724;28;20256;-83
2022/12/05 09:11:25;;;;;;;28.80;13.53;;;;;;;;;;5050603;28;20240;-83
2022/12/05 09:13:54;;;;;;;27.87;14.37;;;;;;;;;;5052442;28;20234;-83
2022/12/05 09:16:23;;;;;;;26.97;15.20;;;;;;;;;;5054573;28;20236;-82
2022/12/05 09:18:51;;;;;;;26.73;13.97;;;;;;;;;;5054698;28;20220;-83
2022/12/05 09:21:19;;;;;;;26.70;14.80;;;;;;;;;;5054123;28;20229;-83
2022/12/05 09:23:46;;;;;;;23.70;14.23;;;;;;;;;;5055076;28;20215;-82
2022/12/05 09:26:14;;;;;;;32.20;16.07;;;;;;;;;;5053950;28;20248;-83
2022/12/05 09:28:41;;;;;;;28.10;14.83;;;;;;;;;;5054611;28;20213;-82
2022/12/05 09:31:09;;;;;;;28.50;14.93;;;;;;;;;;5053713;28;20754;-82
2022/12/05 09:33:38;;;;;;;32.07;15.13;;;;;;;;;;5054550;28;20223;-82
2022/12/05 09:36:06;;;;;;;26.90;15.63;;;;;;;;;;5053505;28;20244;-82
2022/12/05 09:38:33;;;;;;;26.57;14.63;;;;;;;;;;5054027;28;20210;-83
2022/12/05 09:41:05;;;;;;;27.80;15.17;;;;;;;;;;5053739;28;20236;-82
2022/12/05 09:43:37;;;;;;;26.03;13.30;;;;;;;;;;5054412;28;20229;-82
2022/12/05 09:46:10;;;;;;;34.13;17.07;;;;;;;;;;5053536;28;20244;-82
2022/12/05 09:48:39;;;;;;;34.47;18.03;;;;;;;;;;5053880;28;20642;-82
2022/12/05 09:53:51;;;;;;;37.17;18.30;;;;;;;;;;5060496;28;20219;-82
2022/12/05 09:56:21;;;;;;;34.27;17.17;;;;;;;;;;5053426;28;20237;-82
2022/12/05 09:58:49;;;;;;;31.17;16.90;;;;;;;;;;5053925;28;20202;-82
2022/12/05 10:01:24;;;;;;;32.00;16.80;;;;;;;;;;5053227;28;20320;-82
2022/12/05 10:04:02;;;;;;;32.30;15.07;;;;;;;;;;5061203;28;20204;-82
2022/12/05 10:06:33;;;;;;;29.13;15.83;;;;;;;;;;5053351;28;20258;-82
2022/12/05 10:09:08;;;;;;;26.37;14.93;;;;;;;;;;5053638;28;20216;-82
2022/12/05 10:11:37;;;;;;;26.47;14.43;;;;;;;;;;5053537;28;20354;-82
2022/12/05 10:14:08;;;;;;;31.70;15.67;;;;;;;;;;5053813;28;20217;-82
2022/12/05 10:16:39;;;;;;;29.07;15.07;;;;;;;;;;5053289;28;20336;-81
2022/12/05 10:19:11;;;;;;;32.90;16.80;;;;;;;;;;5053532;28;20202;-82
2022/12/05 10:21:40;;;;;;;27.27;15.50;;;;;;;;;;5053144;28;20240;-82
2022/12/05 10:24:13;;;;;;;23.20;14.23;;;;;;;;;;5053686;28;20573;-82
2022/12/05 10:26:44;;;;;;;25.83;15.27;;;;;;;;;;5052108;28;20237;-82
2022/12/05 10:29:15;;;;;;;25.00;14.83;;;;;;;;;;5052925;28;20775;-82
2022/12/05 10:31:43;;;;;;;23.43;12.43;;;;;;;;;;5053050;28;20241;-81
2022/12/05 10:34:17;;;;;;;19.27;12.47;;;;;;;;;;5052881;28;20225;-82
2022/12/05 10:36:50;;;;;;;24.07;13.00;;;;;;;;;;5052693;28;20244;-82
2022/12/05 10:39:18;;;;;;;21.43;13.23;;;;;;;;;;5053087;28;20228;-83
2022/12/05 10:41:45;;;;;;;22.40;12.67;;;;;;;;;;5052868;28;20282;-81
2022/12/05 10:44:12;;;;;;;21.67;13.10;;;;;;;;;;5052929;28;20216;-82
2022/12/05 10:46:39;;;;;;;22.80;13.23;;;;;;;;;;5055144;28;20240;-82
2022/12/05 10:49:10;;;;;;;23.53;13.20;;;;;;;;;;5072767;28;20239;-81
2022/12/05 10:51:39;;;;;;;22.33;13.63;;;;;;;;;;5072697;28;20235;-81
2022/12/05 10:54:14;;;;;;;24.67;13.70;;;;;;;;;;5073009;28;20191;-81
2022/12/05 10:56:42;;;;;;;20.23;12.83;;;;;;;;;;5072257;28;20241;-81
2022/12/05 10:59:10;;;;;;;15.93;10.17;;;;;;;;;;5072534;28;20574;-81
2022/12/05 11:01:38;;;;;;;25.00;14.23;;;;;;;;;;5072295;28;20334;-82
2022/12/05 11:04:09;;;;;;;18.13;11.53;;;;;;;;;;5072329;28;20237;-81
2022/12/05 11:06:36;;;;;;;20.27;12.97;;;;;;;;;;5072168;28;20323;-81
2022/12/05 11:09:06;;;;;;;23.10;13.40;;;;;;;;;;5072465;28;20211;-81
2022/12/05 11:11:34;;;;;;;22.30;13.43;;;;;;;;;;5072378;28;20233;-82
2022/12/05 11:14:01;;;;;;;21.07;11.67;;;;;;;;;;5072422;28;20216;-81
2022/12/05 11:16:30;;;;;;;21.73;12.33;;;;;;;;;;5072234;28;20247;-81
2022/12/05 11:18:57;;;;;;;22.50;11.53;;;;;;;;;;5071992;28;20549;-81
2022/12/05 11:21:24;;;;;;;15.83;10.63;;;;;;;;;;5072098;28;20232;-82
2022/12/05 11:23:51;;;;;;;22.67;12.50;;;;;;;;;;5072319;28;20585;-81
2022/12/05 11:26:33;;;;;;;25.83;11.97;;;;;;;;;;5071796;28;20256;-82
2022/12/05 11:29:00;;;;;;;23.90;12.67;;;;;;;;;;5072104;28;20193;-82
2022/12/05 11:31:28;;;;;;;23.53;13.67;;;;;;;;;;5071632;28;20232;-81
2022/12/05 11:34:11;;;;;;;21.67;12.73;;;;;;;;;;5068886;28;20198;-82
2022/12/05 11:36:40;;;;;;;20.23;12.30;;;;;;;;;;5031537;28;20246;-81
2022/12/05 11:39:09;;;;;;;24.73;12.90;;;;;;;;;;5032062;28;20304;-81
2022/12/05 11:41:44;;;;;;;23.10;12.77;;;;;;;;;;5031721;28;20732;-81
2022/12/05 11:44:19;;;;;;;21.90;13.47;;;;;;;;;;5031978;28;20233;-81
2022/12/05 11:46:53;;;;;;;21.67;11.37;;;;;;;;;;5031224;28;20241;-81
2022/12/05 11:49:29;;;;;;;23.37;12.57;;;;;;;;;;5044623;28;20205;-81
2022/12/05 11:52:03;;;;;;;26.60;13.17;;;;;;;;;;5050716;28;20236;-81
2022/12/05 11:54:40;;;;;;;20.40;12.13;;;;;;;;;;5036061;28;20219;-81
2022/12/05 11:57:12;;;;;;;22.40;11.83;;;;;;;;;;5051045;28;20316;-81
2022/12/05 11:59:50;;;;;;;22.37;12.63;;;;;;;;;;5047839;28;20305;-81
2022/12/05 12:02:23;;;;;;;15.47;9.90;;;;;;;;;;5058415;28;20728;-82
2022/12/05 12:04:53;;;;;;;22.00;9.93;;;;;;;;;;5055930;28;20229;-81
2022/12/05 12:07:26;;;;;;;20.83;11.70;;;;;;;;;;5050398;28;20320;-81
2022/12/05 12:09:57;;;;;;;23.03;12.50;;;;;;;;;;5054394;28;20218;-80
2022/12/05 12:12:29;;;;;;;22.20;12.20;;;;;;;;;;5050040;28;20222;-81
2022/12/05 12:15:02;;;;;;;19.70;11.63;;;;;;;;;;5031174;28;20223;-81
2022/12/05 12:17:31;;;;;;;24.43;13.00;;;;;;;;;;5046455;28;20218;-81
2022/12/05 12:20:15;;;;;;;16.13;10.33;;;;;;;;;;5050731;28;20694;-82
2022/12/05 12:22:55;;;;;;;21.13;11.73;;;;;;;;;;5050661;28;20218;-81
2022/12/05 12:25:26;;;;;;;23.40;12.93;;;;;;;;;;5051085;28;20233;-82
2022/12/05 12:28:00;;;;;;;25.77;13.50;;;;;;;;;;5049913;28;20210;-81
2022/12/05 12:30:31;;;;;;;24.57;13.43;;;;;;;;;;5050187;28;20241;-81
2022/12/05 12:33:05;;;;;;;17.03;9.13;;;;;;;;;;5057260;28;20198;-81
2022/12/05 12:35:32;;;;;;;22.57;11.17;;;;;;;;;;5053616;28;20243;-81
2022/12/05 12:38:08;;;;;;;23.53;12.60;;;;;;;;;;5049836;28;20217;-81
2022/12/05 12:40:39;;;;;;;32.47;13.67;;;;;;;;;;5050184;28;20252;-81
2022/12/05 12:43:13;;;;;;;23.73;12.97;;;;;;;;;;5050371;28;20226;-80
2022/12/05 12:45:46;;;;;;;21.70;12.83;;;;;;;;;;5050502;28;20245;-81
2022/12/05 12:48:20;;;;;;;23.70;13.20;;;;;;;;;;5050959;28;20289;-81
2022/12/05 12:50:52;;;;;;;24.37;12.97;;;;;;;;;;5057597;28;20237;-81
2022/12/05 12:53:28;;;;;;;25.67;13.50;;;;;;;;;;5054064;28;20202;-81
2022/12/05 12:56:00;;;;;;;27.53;13.60;;;;;;;;;;5049072;28;20709;-82
2022/12/05 12:58:39;;;;;;;31.60;12.53;;;;;;;;;;5050774;28;20666;-81
2022/12/05 13:01:11;;;;;;;29.17;14.47;;;;;;;;;;5054593;28;20240;-81
2022/12/05 13:03:40;;;;;;;13.47;7.63;;;;;;;;;;5054519;28;20220;-81
2022/12/05 13:06:11;;;;;;;25.27;13.13;;;;;;;;;;5053777;28;20233;-81
2022/12/05 13:08:41;;;;;;;19.67;12.73;;;;;;;;;;5054948;28;20187;-81
2022/12/05 13:11:10;;;;;;;19.87;12.70;;;;;;;;;;5053787;28;20244;-81
2022/12/05 13:13:45;;;;;;;25.20;13.43;;;;;;;;;;5054098;28;20210;-81
2022/12/05 13:16:14;;;;;;;26.50;13.13;;;;;;;;;;5053554;28;20244;-82
2022/12/05 13:18:41;;;;;;;22.33;13.03;;;;;;;;;;5054134;28;20224;-81
2022/12/05 13:21:09;;;;;;;25.70;13.27;;;;;;;;;;5053514;28;20229;-81
2022/12/05 13:23:44;;;;;;;24.20;13.67;;;;;;;;;;5054649;28;20229;-81
2022/12/05 13:26:11;;;;;;;21.83;12.67;;;;;;;;;;5054449;28;20236;-81
2022/12/05 13:28:48;;;;;;;24.37;13.10;;;;;;;;;;5063092;28;20212;-81
2022/12/05 13:31:16;;;;;;;22.23;13.57;;;;;;;;;;5074194;28;20239;-82
2022/12/05 13:33:44;;;;;;;21.97;12.73;;;;;;;;;;5074630;28;20197;-81
2022/12/05 13:44:35;;;;;;;28.27;15.40;;;;;;;;;;5074338;28;20266;-81
2022/12/05 13:47:06;;;;;;;24.10;13.23;;;;;;;;;;5074026;28;20233;-81
2022/12/05 13:49:35;;;;;;;28.90;14.37;;;;;;;;;;5074595;28;20212;-81
2022/12/05 13:52:08;;;;;;;22.10;12.90;;;;;;;;;;5074030;28;20717;-82
2022/12/05 13:54:36;;;;;;;25.57;13.13;;;;;;;;;;5074238;28;20206;-81
2022/12/05 13:57:04;;;;;;;25.83;13.00;;;;;;;;;;5073665;28;20720;-81
2022/12/05 13:59:58;;;;;;;24.33;13.33;;;;;;;;;;5073922;28;20255;-81
2022/12/05 14:02:40;;;;;;;27.03;14.60;;;;;;;;;;5030411;28;20230;-81
2022/12/05 14:05:24;;;;;;;25.73;14.30;;;;;;;;;;5053345;28;20221;-81
2022/12/05 14:07:53;;;;;;;23.73;12.07;;;;;;;;;;5054226;28;20193;-81
2022/12/05 14:10:21;;;;;;;24.93;13.27;;;;;;;;;;5053965;28;20214;-82
2022/12/05 14:12:50;;;;;;;26.03;15.07;;;;;;;;;;5054439;28;20209;-81
2022/12/05 14:15:28;;;;;;;27.70;15.77;;;;;;;;;;5053808;28;20245;-81
2022/12/05 14:18:01;;;;;;;26.43;16.03;;;;;;;;;;5054047;28;20214;-81
2022/12/05 14:20:32;;;;;;;23.07;14.13;;;;;;;;;;5075765;23;20238;-84
2022/12/05 14:23:06;;;;;;;24.10;15.43;;;;;;;;;;5013819;28;20277;-84
2022/12/05 14:25:38;;;;;;;26.40;15.33;;;;;;;;;;5013510;28;20694;-84
2022/12/05 14:28:14;;;;;;;21.13;13.30;;;;;;;;;;5013941;28;20199;-84
2022/12/05 14:30:47;;;;;;;22.33;13.87;;;;;;;;;;5011154;28;20258;-84
2022/12/05 14:33:16;;;;;;;27.20;16.00;;;;;;;;;;5013843;28;20203;-84
2022/12/05 14:35:45;;;;;;;23.17;14.33;;;;;;;;;;5013308;28;20246;-84
2022/12/05 14:38:22;;;;;;;27.00;14.67;;;;;;;;;;5013712;28;20214;-84
2022/12/05 14:40:49;;;;;;;21.87;14.93;;;;;;;;;;5019695;28;20732;-84
2022/12/05 14:43:19;;;;;;;26.93;16.13;;;;;;;;;;5034335;28;20227;-84
2022/12/05 14:45:56;;;;;;;24.07;14.87;;;;;;;;;;5027967;28;20611;-84